createdAt,value
2019-02-25T00:01:44.991Z,5.40
2019-02-25T00:04:33.602Z,5.50
2019-02-25T00:07:22.071Z,5.60
2019-02-25T00:10:10.565Z,5.70
2019-02-25T00:12:58.678Z,5.60
2019-02-25T00:15:47.677Z,5.50
2019-02-25T00:18:36.302Z,5.40
2019-02-25T00:21:24.240Z,5.40
2019-02-25T00:24:12.401Z,5.30
2019-02-25T00:27:01.086Z,5.30
2019-02-25T00:29:50.919Z,5.30
2019-02-25T00:32:39.148Z,5.30
2019-02-25T00:35:27.721Z,5.30
2019-02-25T00:38:16.523Z,5.40
2019-02-25T00:41:05.049Z,5.30
2019-02-25T00:43:53.681Z,5.30
2019-02-25T00:46:41.242Z,5.20
2019-02-25T00:49:29.844Z,5.10
2019-02-25T00:52:18.352Z,5.20
2019-02-25T00:55:07.427Z,5.20
2019-02-25T00:57:55.107Z,5.20
2019-02-25T01:00:43.673Z,5.20
2019-02-25T01:03:31.840Z,5.20
2019-02-25T01:06:20.516Z,5.20
2019-02-25T01:09:08.947Z,5.10
2019-02-25T01:11:56.915Z,5.00
2019-02-25T01:14:44.517Z,4.90
2019-02-25T01:17:32.573Z,5.00
2019-02-25T01:20:20.808Z,4.90
2019-02-25T01:23:08.671Z,5.00
2019-02-25T01:25:57.445Z,5.00
2019-02-25T01:28:45.875Z,4.80
2019-02-25T01:31:34.276Z,4.90
2019-02-25T01:34:22.355Z,4.80
2019-02-25T01:37:11.003Z,4.80
2019-02-25T01:39:59.673Z,4.90
2019-02-25T01:42:47.687Z,4.80
2019-02-25T01:45:36.496Z,4.80
2019-02-25T01:48:24.932Z,4.80
2019-02-25T01:51:14.065Z,4.80
2019-02-25T01:54:02.339Z,4.70
2019-02-25T01:56:51.244Z,4.80
2019-02-25T01:59:39.304Z,4.70
2019-02-25T02:02:27.837Z,4.70
2019-02-25T02:05:21.999Z,4.70
2019-02-25T02:08:10.264Z,4.70
2019-02-25T02:10:58.289Z,4.70
2019-02-25T02:13:46.757Z,4.70
2019-02-25T02:16:34.932Z,4.60
2019-02-25T02:19:23.740Z,4.50
2019-02-25T02:22:12.119Z,4.50
2019-02-25T02:25:00.274Z,4.50
2019-02-25T02:27:48.940Z,4.40
2019-02-25T02:30:36.621Z,4.50
2019-02-25T02:33:25.069Z,4.50
2019-02-25T02:36:13.713Z,4.50
2019-02-25T02:39:01.529Z,4.60
2019-02-25T02:42:22.579Z,4.50
2019-02-25T02:45:17.892Z,4.30
2019-02-25T02:48:09.574Z,4.20
2019-02-25T02:50:58.556Z,4.30
2019-02-25T02:53:46.503Z,4.30
2019-02-25T02:56:34.860Z,4.20
2019-02-25T02:59:23.294Z,4.20
2019-02-25T03:02:11.811Z,4.10
2019-02-25T03:05:00.324Z,4.00
2019-02-25T03:07:48.671Z,4.10
2019-02-25T03:10:36.379Z,4.10
2019-02-25T03:13:24.419Z,4.10
2019-02-25T03:16:12.711Z,4.10
2019-02-25T03:19:00.696Z,4.10
2019-02-25T03:21:48.671Z,4.10
2019-02-25T03:24:37.028Z,4.00
2019-02-25T03:27:25.316Z,4.00
2019-02-25T03:30:18.559Z,4.00
2019-02-25T03:33:06.896Z,4.00
2019-02-25T03:35:54.823Z,3.80
2019-02-25T03:38:43.421Z,3.70
2019-02-25T03:41:31.444Z,3.70
2019-02-25T03:44:19.490Z,3.80
2019-02-25T03:47:07.730Z,3.80
2019-02-25T03:49:55.756Z,3.80
2019-02-25T03:52:44.004Z,3.70
2019-02-25T03:55:31.639Z,3.70
2019-02-25T03:58:19.839Z,3.70
2019-02-25T04:01:07.997Z,3.50
2019-02-25T04:03:55.777Z,3.40
2019-02-25T04:06:43.860Z,3.30
2019-02-25T04:09:31.588Z,3.30
2019-02-25T04:12:19.515Z,3.40
2019-02-25T04:15:09.570Z,3.30
2019-02-25T04:17:58.047Z,3.40
2019-02-25T04:20:46.159Z,3.40
2019-02-25T04:23:34.157Z,3.40
2019-02-25T04:26:21.800Z,3.40
2019-02-25T04:29:10.234Z,3.20
2019-02-25T04:31:58.500Z,3.30
2019-02-25T04:34:46.457Z,3.40
2019-02-25T04:37:34.956Z,3.30
2019-02-25T04:40:23.215Z,3.20
2019-02-25T04:43:11.381Z,3.10
2019-02-25T04:45:59.128Z,3.10
2019-02-25T04:48:47.619Z,3.10
2019-02-25T04:51:36.495Z,3.20
2019-02-25T04:54:24.949Z,3.10
2019-02-25T04:57:13.460Z,3.20
2019-02-25T05:00:01.205Z,3.10
2019-02-25T05:02:49.634Z,3.10
2019-02-25T05:05:37.265Z,3.10
2019-02-25T05:08:24.823Z,3.00
2019-02-25T05:11:12.792Z,3.00
2019-02-25T05:14:01.295Z,2.90
2019-02-25T05:16:49.263Z,2.90
2019-02-25T05:19:37.351Z,2.80
2019-02-25T05:22:25.922Z,2.70
2019-02-25T05:25:14.203Z,2.80
2019-02-25T05:28:03.073Z,2.80
2019-02-25T05:30:50.907Z,2.90
2019-02-25T05:33:39.179Z,2.80
2019-02-25T05:36:27.734Z,2.80
2019-02-25T05:39:16.379Z,2.90
2019-02-25T05:42:04.884Z,2.80
2019-02-25T05:44:52.394Z,2.90
2019-02-25T05:47:40.765Z,2.90
2019-02-25T05:50:28.753Z,2.90
2019-02-25T05:53:17.250Z,2.90
2019-02-25T05:56:05.700Z,2.80
2019-02-25T05:58:54.123Z,2.60
2019-02-25T06:01:41.604Z,2.50
2019-02-25T06:04:30.008Z,2.60
2019-02-25T06:07:18.450Z,2.70
2019-02-25T06:10:07.847Z,2.60
2019-02-25T06:12:55.511Z,2.60
2019-02-25T06:15:43.883Z,2.60
2019-02-25T06:18:32.320Z,2.60
2019-02-25T06:21:20.693Z,2.60
2019-02-25T06:24:08.956Z,2.60
2019-02-25T06:26:56.612Z,2.60
2019-02-25T06:29:45.139Z,2.50
2019-02-25T06:32:33.861Z,2.60
2019-02-25T06:35:22.226Z,2.60
2019-02-25T06:38:10.752Z,2.70
2019-02-25T06:40:58.939Z,2.70
2019-02-25T06:43:46.699Z,2.60
2019-02-25T06:46:34.973Z,2.60
2019-02-25T06:49:23.024Z,2.40
2019-02-25T06:52:11.424Z,2.60
2019-02-25T06:54:59.865Z,2.70
2019-02-25T06:57:47.629Z,2.80
2019-02-25T07:00:36.039Z,2.90
2019-02-25T07:03:24.590Z,2.90
2019-02-25T07:06:26.628Z,3.00
2019-02-25T07:09:26.013Z,2.90
2019-02-25T07:12:19.500Z,3.00
2019-02-25T07:15:17.395Z,3.20
2019-02-25T07:18:15.452Z,3.30
2019-02-25T07:21:16.955Z,3.40
2019-02-25T07:24:33.524Z,3.50
2019-02-25T07:27:41.975Z,3.50
2019-02-25T07:30:48.827Z,3.50
2019-02-25T07:34:04.811Z,3.60
2019-02-25T07:37:15.115Z,3.80
2019-02-25T07:40:20.008Z,4.60
2019-02-25T07:43:27.259Z,5.60
2019-02-25T07:46:23.990Z,6.60
2019-02-25T07:49:34.054Z,7.70
2019-02-25T07:52:47.339Z,8.50
2019-02-25T07:55:45.139Z,9.20
2019-02-25T07:58:55.116Z,9.80
2019-02-25T08:01:57.861Z,9.90
2019-02-25T08:04:52.370Z,9.30
2019-02-25T08:07:56.706Z,8.40
2019-02-25T08:11:07.176Z,7.80
2019-02-25T08:14:17.772Z,7.80
2019-02-25T08:17:26.843Z,8.20
2019-02-25T08:20:40.114Z,8.90
2019-02-25T08:23:37.816Z,9.90
2019-02-25T08:26:44.831Z,10.20
2019-02-25T08:29:49.264Z,9.70
2019-02-25T08:32:44.651Z,9.30
2019-02-25T08:36:30.628Z,9.20
2019-02-25T08:39:36.307Z,9.30
2019-02-25T08:42:42.476Z,9.00
2019-02-25T08:45:35.683Z,8.90
2019-02-25T08:48:32.454Z,9.00
2019-02-25T08:51:19.980Z,9.30
2019-02-25T08:54:07.954Z,10.20
2019-02-25T08:56:56.091Z,11.40
2019-02-25T08:59:44.516Z,13.40
2019-02-25T09:02:32.495Z,15.10
2019-02-25T09:05:21.008Z,16.50
2019-02-25T09:08:09.367Z,17.00
2019-02-25T09:10:57.124Z,17.20
2019-02-25T09:13:44.957Z,16.10
2019-02-25T09:16:33.324Z,14.60
2019-02-25T09:19:22.048Z,13.70
2019-02-25T09:22:10.099Z,13.10
2019-02-25T09:24:58.532Z,13.00
2019-02-25T09:27:47.002Z,13.30
2019-02-25T09:30:35.527Z,13.40
2019-02-25T09:33:23.612Z,14.20
2019-02-25T09:36:12.077Z,14.70
2019-02-25T09:39:00.593Z,15.40
2019-02-25T09:41:48.856Z,16.40
2019-02-25T09:44:37.980Z,17.30
2019-02-25T09:47:26.612Z,18.00
2019-02-25T09:50:14.828Z,18.80
2019-02-25T09:53:03.107Z,20.30
2019-02-25T09:55:51.566Z,21.00
2019-02-25T09:58:39.548Z,22.10
2019-02-25T10:01:27.914Z,22.40
2019-02-25T10:04:15.452Z,22.20
2019-02-25T10:07:03.863Z,21.40
2019-02-25T10:09:52.223Z,21.30
2019-02-25T10:12:40.563Z,21.30
2019-02-25T10:15:29.008Z,21.50
2019-02-25T10:18:17.775Z,20.80
2019-02-25T10:21:06.315Z,20.00
2019-02-25T10:23:54.423Z,19.20
2019-02-25T10:26:42.521Z,20.60
2019-02-25T10:29:30.621Z,21.70
2019-02-25T10:32:18.806Z,22.60
2019-02-25T10:35:09.368Z,22.80
2019-02-25T10:37:58.183Z,24.00
2019-02-25T10:40:47.530Z,24.30
2019-02-25T10:43:36.576Z,24.20
2019-02-25T10:46:25.012Z,25.50
2019-02-25T10:49:13.375Z,24.70
2019-02-25T10:52:01.527Z,24.70
2019-02-25T10:54:51.534Z,25.70
2019-02-25T10:57:39.267Z,25.50
2019-02-25T11:00:27.632Z,27.30
2019-02-25T11:03:17.895Z,28.30
2019-02-25T11:06:06.040Z,27.80
2019-02-25T11:09:00.470Z,27.00
2019-02-25T11:11:49.000Z,27.70
2019-02-25T11:14:40.938Z,28.10
2019-02-25T11:17:28.163Z,27.80
2019-02-25T11:20:16.817Z,27.80
2019-02-25T11:23:04.903Z,28.70
2019-02-25T11:25:55.753Z,28.50
2019-02-25T11:28:43.799Z,29.30
2019-02-25T11:31:31.987Z,29.70
2019-02-25T11:34:20.007Z,28.70
2019-02-25T11:37:08.443Z,28.20
2019-02-25T11:39:57.268Z,29.40
2019-02-25T11:42:46.578Z,29.70
2019-02-25T11:45:36.267Z,29.60
2019-02-25T11:48:24.455Z,29.40
2019-02-25T11:51:12.487Z,29.60
2019-02-25T11:54:00.539Z,29.60
2019-02-25T11:56:48.615Z,28.60
2019-02-25T11:59:36.777Z,29.50
2019-02-25T12:02:25.818Z,30.20
2019-02-25T12:05:15.975Z,29.90
2019-02-25T12:08:04.372Z,29.60
2019-02-25T12:10:52.269Z,28.60
2019-02-25T12:13:40.381Z,29.10
2019-02-25T12:16:28.870Z,29.30
2019-02-25T12:19:18.173Z,29.20
2019-02-25T12:22:06.455Z,29.50
2019-02-25T12:24:54.867Z,30.40
2019-02-25T12:27:43.306Z,31.10
2019-02-25T12:30:31.721Z,30.50
2019-02-25T12:33:19.835Z,31.00
2019-02-25T12:36:08.596Z,31.50
2019-02-25T12:38:57.287Z,31.40
2019-02-25T12:41:45.263Z,31.50
2019-02-25T12:44:33.851Z,31.50
2019-02-25T12:47:22.201Z,31.10
2019-02-25T12:50:10.753Z,30.80
2019-02-25T12:52:58.686Z,30.60
2019-02-25T12:55:46.496Z,31.00
2019-02-25T12:58:34.551Z,30.80
2019-02-25T13:01:23.483Z,31.30
2019-02-25T13:04:11.239Z,31.20
2019-02-25T13:06:59.130Z,31.00
2019-02-25T13:09:47.623Z,30.30
2019-02-25T13:12:35.671Z,30.40
2019-02-25T13:15:24.070Z,30.60
2019-02-25T13:18:12.425Z,31.00
2019-02-25T13:21:00.019Z,31.50
2019-02-25T13:23:48.162Z,30.90
2019-02-25T13:26:36.586Z,30.10
2019-02-25T13:29:26.210Z,30.70
2019-02-25T13:32:14.363Z,30.10
2019-02-25T13:35:02.400Z,30.00
2019-02-25T13:37:51.135Z,30.60
2019-02-25T13:40:39.110Z,31.00
2019-02-25T13:43:27.762Z,30.40
2019-02-25T13:46:15.814Z,31.10
2019-02-25T13:49:04.195Z,31.30
2019-02-25T13:51:52.138Z,30.80
2019-02-25T13:54:40.196Z,31.20
2019-02-25T13:57:28.023Z,31.30
2019-02-25T14:00:17.955Z,31.00
2019-02-25T14:03:06.694Z,30.80
2019-02-25T14:05:54.802Z,30.20
2019-02-25T14:08:43.047Z,29.00
2019-02-25T14:11:31.287Z,30.10
2019-02-25T14:14:19.863Z,30.50
2019-02-25T14:17:07.578Z,31.10
2019-02-25T14:19:55.836Z,31.00
2019-02-25T14:22:44.359Z,31.10
2019-02-25T14:25:32.867Z,30.20
2019-02-25T14:28:21.210Z,29.70
2019-02-25T14:31:09.928Z,29.10
2019-02-25T14:33:58.547Z,29.20
2019-02-25T14:36:48.383Z,28.10
2019-02-25T14:39:38.270Z,28.00
2019-02-25T14:42:26.423Z,27.70
2019-02-25T14:45:19.450Z,27.50
2019-02-25T14:48:08.185Z,27.00
2019-02-25T14:50:56.068Z,26.30
2019-02-25T14:53:44.695Z,26.00
2019-02-25T14:56:33.651Z,26.70
2019-02-25T14:59:22.280Z,27.20
2019-02-25T15:02:11.121Z,26.50
2019-02-25T15:04:59.087Z,25.30
2019-02-25T15:07:48.719Z,23.80
2019-02-25T15:10:38.492Z,24.40
2019-02-25T15:13:28.143Z,24.90
2019-02-25T15:16:17.277Z,25.00
2019-02-25T15:19:05.267Z,26.60
2019-02-25T15:21:54.338Z,27.00
2019-02-25T15:24:44.411Z,27.20
2019-02-25T15:27:32.419Z,26.90
2019-02-25T15:30:24.984Z,27.40
2019-02-25T15:33:12.627Z,27.00
2019-02-25T15:36:01.690Z,27.20
2019-02-25T15:38:49.832Z,26.70
2019-02-25T15:41:38.491Z,26.50
2019-02-25T15:44:28.050Z,26.20
2019-02-25T15:47:16.267Z,25.70
2019-02-25T15:50:05.947Z,25.20
2019-02-25T15:52:56.973Z,24.30
2019-02-25T15:55:46.024Z,23.60
2019-02-25T15:58:34.599Z,23.50
2019-02-25T16:01:23.283Z,23.30
2019-02-25T16:04:12.985Z,22.80
2019-02-25T16:07:04.427Z,22.90
2019-02-25T16:09:51.125Z,22.50
2019-02-25T16:12:39.570Z,22.60
2019-02-25T16:15:27.923Z,22.50
2019-02-25T16:18:15.759Z,22.10
2019-02-25T16:21:04.304Z,21.60
2019-02-25T16:23:52.415Z,21.20
2019-02-25T16:26:40.999Z,20.40
2019-02-25T16:29:30.823Z,19.60
2019-02-25T16:32:19.294Z,18.50
2019-02-25T16:35:09.135Z,17.80
2019-02-25T16:37:57.616Z,17.30
2019-02-25T16:40:46.547Z,16.90
2019-02-25T16:43:35.453Z,16.60
2019-02-25T16:46:24.028Z,16.40
2019-02-25T16:49:12.768Z,16.10
2019-02-25T16:52:02.149Z,16.00
2019-02-25T16:54:50.602Z,15.70
2019-02-25T16:57:40.749Z,15.60
2019-02-25T17:00:30.173Z,15.40
2019-02-25T17:03:19.175Z,15.30
2019-02-25T17:06:09.224Z,15.10
2019-02-25T17:08:57.851Z,15.00
2019-02-25T17:11:46.073Z,14.80
2019-02-25T17:14:33.831Z,14.60
2019-02-25T17:17:24.865Z,14.50
2019-02-25T17:20:13.807Z,14.40
2019-02-25T17:23:01.615Z,14.20
2019-02-25T17:25:50.032Z,14.10
2019-02-25T17:28:38.758Z,13.90
2019-02-25T17:31:27.412Z,13.70
2019-02-25T17:34:16.657Z,13.50
2019-02-25T17:37:06.009Z,13.30
2019-02-25T17:39:58.455Z,13.10
2019-02-25T17:42:45.327Z,12.90
2019-02-25T17:45:36.813Z,12.80
2019-02-25T17:48:24.687Z,12.70
2019-02-25T17:51:12.486Z,12.60
2019-02-25T17:54:01.002Z,12.40
2019-02-25T17:56:49.743Z,12.20
2019-02-25T17:59:39.275Z,12.10
2019-02-25T18:02:27.549Z,11.90
2019-02-25T18:05:18.551Z,11.80
2019-02-25T18:08:10.537Z,11.90
2019-02-25T18:10:58.235Z,11.70
2019-02-25T18:13:47.257Z,11.70
2019-02-25T18:16:37.134Z,11.50
2019-02-25T18:19:27.139Z,11.40
2019-02-25T18:22:17.235Z,11.40
2019-02-25T18:25:10.274Z,11.40
2019-02-25T18:27:58.760Z,11.20
2019-02-25T18:30:48.965Z,11.00
2019-02-25T18:33:38.262Z,11.00
2019-02-25T18:36:28.740Z,11.10
2019-02-25T18:39:18.014Z,11.00
2019-02-25T18:42:06.608Z,10.90
2019-02-25T18:44:55.008Z,10.60
2019-02-25T18:47:43.571Z,10.50
2019-02-25T18:50:31.750Z,10.40
2019-02-25T18:53:20.613Z,10.30
2019-02-25T18:56:11.849Z,10.20
2019-02-25T18:59:08.790Z,10.20
2019-02-25T19:01:51.917Z,10.10
2019-02-25T19:04:41.372Z,10.10
2019-02-25T19:07:31.533Z,10.10
2019-02-25T19:10:22.489Z,10.00
2019-02-25T19:13:10.695Z,9.90
2019-02-25T19:15:59.332Z,9.90
2019-02-25T19:18:49.363Z,9.70
2019-02-25T19:21:38.284Z,9.70
2019-02-25T19:24:26.118Z,9.60
2019-02-25T19:27:15.179Z,9.50
2019-02-25T19:30:03.898Z,9.40
2019-02-25T19:32:52.075Z,9.40
2019-02-25T19:35:40.953Z,9.20
2019-02-25T19:38:32.053Z,9.10
2019-02-25T19:41:20.829Z,9.10
2019-02-25T19:44:10.551Z,9.00
2019-02-25T19:46:59.144Z,8.90
2019-02-25T19:49:47.856Z,8.90
2019-02-25T19:52:39.428Z,8.90
2019-02-25T19:55:27.360Z,8.80
2019-02-25T19:58:16.120Z,8.70
2019-02-25T20:01:06.196Z,8.60
2019-02-25T20:03:55.123Z,8.60
2019-02-25T20:06:44.928Z,8.50
2019-02-25T20:09:34.324Z,8.40
2019-02-25T20:12:23.199Z,8.30
2019-02-25T20:15:15.787Z,8.30
2019-02-25T20:18:04.507Z,8.20
2019-02-25T20:20:54.948Z,8.40
2019-02-25T20:23:42.935Z,8.30
2019-02-25T20:26:32.548Z,8.20
2019-02-25T20:29:20.681Z,8.10
2019-02-25T20:32:10.184Z,8.00
2019-02-25T20:34:59.366Z,8.00
2019-02-25T20:37:51.119Z,7.90
2019-02-25T20:40:38.828Z,7.90
2019-02-25T20:43:28.265Z,7.90
2019-02-25T20:46:20.002Z,7.90
2019-02-25T20:49:07.538Z,8.00
2019-02-25T20:51:56.958Z,7.90
2019-02-25T20:54:47.609Z,7.90
2019-02-25T20:57:38.006Z,8.00
2019-02-25T21:00:26.433Z,8.00
2019-02-25T21:03:16.654Z,7.90
2019-02-25T21:06:04.330Z,7.80
2019-02-25T21:08:51.927Z,7.80
2019-02-25T21:11:40.155Z,7.70
2019-02-25T21:14:31.444Z,7.50
2019-02-25T21:17:18.551Z,7.50
2019-02-25T21:20:08.663Z,7.50
2019-02-25T21:23:03.520Z,7.60
2019-02-25T21:25:53.468Z,7.50
2019-02-25T21:28:42.097Z,7.40
2019-02-25T21:31:29.912Z,7.30
2019-02-25T21:34:22.055Z,7.30
2019-02-25T21:37:07.614Z,7.20
2019-02-25T21:39:56.548Z,7.30
2019-02-25T21:42:46.880Z,7.30
2019-02-25T21:45:36.027Z,7.40
2019-02-25T21:48:25.663Z,7.30
2019-02-25T21:51:14.359Z,7.20
2019-02-25T21:54:04.504Z,7.20
2019-02-25T21:56:52.728Z,7.20
2019-02-25T21:59:41.084Z,7.20
2019-02-25T22:02:29.995Z,7.00
2019-02-25T22:05:19.371Z,6.90
2019-02-25T22:08:07.951Z,7.00
2019-02-25T22:10:58.235Z,7.00
2019-02-25T22:13:46.143Z,6.70
2019-02-25T22:16:43.612Z,6.70
2019-02-25T22:19:24.008Z,6.60
2019-02-25T22:22:12.579Z,6.60
2019-02-25T22:25:04.141Z,6.50
2019-02-25T22:27:49.784Z,6.40
2019-02-25T22:30:37.962Z,6.60
2019-02-25T22:33:27.862Z,6.60
2019-02-25T22:36:15.327Z,6.60
2019-02-25T22:39:05.429Z,6.50
2019-02-25T22:41:53.972Z,6.40
2019-02-25T22:44:42.588Z,6.40
2019-02-25T22:47:30.455Z,6.40
2019-02-25T22:50:18.877Z,6.30
2019-02-25T22:53:08.888Z,6.40
2019-02-25T22:55:57.486Z,6.40
2019-02-25T22:58:45.607Z,6.30
2019-02-25T23:01:36.865Z,6.30
2019-02-25T23:04:24.355Z,6.20
2019-02-25T23:07:15.282Z,6.20
2019-02-25T23:10:06.457Z,6.30
2019-02-25T23:12:54.931Z,6.10
2019-02-25T23:15:44.687Z,6.10
2019-02-25T23:18:32.915Z,6.10
2019-02-25T23:21:24.144Z,6.00
2019-02-25T23:24:11.884Z,6.00
2019-02-25T23:27:00.575Z,5.90
2019-02-25T23:29:49.191Z,5.80
2019-02-25T23:32:39.355Z,5.80
2019-02-25T23:35:28.115Z,5.90
2019-02-25T23:38:15.644Z,5.80
2019-02-25T23:41:05.514Z,5.90
2019-02-25T23:43:53.361Z,5.80
2019-02-25T23:46:41.556Z,5.70
2019-02-25T23:49:29.750Z,5.70
2019-02-25T23:52:17.695Z,5.60
2019-02-25T23:55:06.565Z,5.60
2019-02-25T23:57:55.172Z,5.60
